Time;durP1;ratioP1;P1;durP2;ratioP2;P2;SDS_P1;SDS_P2;PMS_P1;PMS_P2;Temp;Humidity;BMP_temperature;BMP_pressure;BME280_temperature;BME280_humidity;BME280_pressure;Samples;Min_cycle;Max_cycle;Signal;HPM_P1;HPM_P2
2023/01/23 00:00:27;;;;;;;13.23;5.93;;;1.70;79.90;;;;;;4979260;28;87900;-70
2023/01/23 00:02:53;;;;;;;13.52;6.38;;;1.80;79.90;;;;;;5000033;28;87468;-71
2023/01/23 00:05:19;;;;;;;12.25;5.32;;;1.80;79.80;;;;;;4987510;28;87109;-70
2023/01/23 00:07:44;;;;;;;13.05;5.93;;;1.80;79.90;;;;;;4982352;28;88105;-71
2023/01/23 00:10:10;;;;;;;12.13;5.47;;;1.80;80.30;;;;;;4978820;28;88481;-71
2023/01/23 00:12:39;;;;;;;12.40;5.13;;;1.70;80.60;;;;;;4979439;28;87017;-72
2023/01/23 00:15:05;;;;;;;11.32;4.78;;;1.60;80.80;;;;;;4975808;28;87705;-70
2023/01/23 00:17:31;;;;;;;11.00;5.05;;;1.60;80.90;;;;;;4973020;28;89600;-70
2023/01/23 00:19:58;;;;;;;12.13;5.40;;;1.70;80.90;;;;;;4979352;28;88389;-70
2023/01/23 00:22:24;;;;;;;13.07;5.53;;;1.70;80.80;;;;;;4970937;28;87304;-71
2023/01/23 00:24:49;;;;;;;11.55;4.90;;;1.70;80.60;;;;;;4979472;28;87197;-71
2023/01/23 00:27:15;;;;;;;12.55;5.03;;;1.70;80.80;;;;;;4979595;28;88444;-70
2023/01/23 00:29:41;;;;;;;11.95;4.95;;;1.70;80.80;;;;;;4976428;28;88527;-71
2023/01/23 00:32:06;;;;;;;11.15;4.95;;;1.60;81.10;;;;;;4971149;28;87472;-70
2023/01/23 00:34:32;;;;;;;13.10;5.05;;;1.50;81.30;;;;;;4981096;28;86844;-71
2023/01/23 00:36:58;;;;;;;11.18;5.00;;;1.60;81.30;;;;;;4984115;28;88353;-72
2023/01/23 00:39:24;;;;;;;10.30;4.90;;;1.60;81.10;;;;;;4978352;28;87924;-71
2023/01/23 00:41:49;;;;;;;12.77;5.43;;;1.60;81.10;;;;;;4984167;28;88806;-71
2023/01/23 00:44:15;;;;;;;10.95;5.03;;;1.70;81.00;;;;;;4984887;28;87868;-70
2023/01/23 00:46:41;;;;;;;11.50;4.90;;;1.60;80.80;;;;;;4975357;28;87937;-72
2023/01/23 00:49:07;;;;;;;12.98;5.55;;;1.60;80.60;;;;;;4978624;28;87194;-70
2023/01/23 00:51:34;;;;;;;11.88;4.85;;;1.40;81.10;;;;;;4989842;28;88216;-72
2023/01/23 00:54:00;;;;;;;10.77;4.55;;;1.50;81.20;;;;;;4999914;28;87272;-70
2023/01/23 00:56:26;;;;;;;14.25;5.90;;;1.40;81.10;;;;;;4990301;28;87859;-70
2023/01/23 00:58:52;;;;;;;12.57;5.57;;;1.50;80.90;;;;;;4982251;28;87934;-70
2023/01/23 01:01:18;;;;;;;10.32;4.40;;;1.40;81.00;;;;;;4992200;28;87008;-71
2023/01/23 01:03:44;;;;;;;9.90;4.65;;;1.40;80.40;;;;;;4981131;28;87295;-70
2023/01/23 01:06:11;;;;;;;10.10;4.53;;;1.50;80.30;;;;;;4972889;28;88595;-69
2023/01/23 01:08:37;;;;;;;10.82;4.53;;;1.40;80.60;;;;;;4966143;28;87670;-70
2023/01/23 01:11:03;;;;;;;11.15;4.78;;;1.40;80.80;;;;;;4978468;28;87183;-70
2023/01/23 01:13:29;;;;;;;10.48;4.68;;;1.40;81.00;;;;;;4981698;28;88006;-70
2023/01/23 01:15:55;;;;;;;10.38;4.53;;;1.40;80.90;;;;;;4975116;28;87691;-70
2023/01/23 01:18:21;;;;;;;9.40;4.50;;;1.30;80.90;;;;;;4980785;28;87403;-70
2023/01/23 01:20:48;;;;;;;11.40;4.93;;;1.30;81.40;;;;;;4986236;28;87854;-73
2023/01/23 01:23:14;;;;;;;10.70;4.43;;;1.30;81.30;;;;;;4981901;28;86723;-72
2023/01/23 01:25:40;;;;;;;11.63;5.03;;;1.30;81.60;;;;;;4977552;28;88546;-72
2023/01/23 01:28:06;;;;;;;10.98;5.15;;;1.30;81.40;;;;;;4995007;28;88246;-70
2023/01/23 01:30:33;;;;;;;10.38;4.75;;;1.30;81.50;;;;;;4977908;28;88220;-72
2023/01/23 01:32:59;;;;;;;11.82;5.25;;;1.10;81.80;;;;;;4977232;28;87038;-72
2023/01/23 01:35:24;;;;;;;11.20;4.70;;;1.10;81.80;;;;;;4990202;28;89609;-71
2023/01/23 01:37:50;;;;;;;9.98;4.72;;;1.10;81.90;;;;;;4972696;28;87356;-71
2023/01/23 01:40:22;;;;;;;10.45;4.47;;;1.00;81.30;;;;;;4998913;28;87227;-70
2023/01/23 01:42:58;;;;;;;11.20;4.50;;;1.00;81.10;;;;;;4981948;28;87558;-71
2023/01/23 01:46:01;;;;;;;12.52;5.47;;;1.00;80.90;;;;;;4972228;28;88150;-71
2023/01/23 01:48:50;;;;;;;11.20;5.15;;;0.90;81.10;;;;;;4985804;28;87422;-71
2023/01/23 01:51:16;;;;;;;12.27;5.07;;;0.90;81.70;;;;;;4975752;28;87168;-71
2023/01/23 01:53:45;;;;;;;12.43;5.47;;;0.80;81.80;;;;;;4979252;28;87272;-71
2023/01/23 01:56:13;;;;;;;14.00;5.40;;;0.80;81.80;;;;;;4979652;28;89077;-71
2023/01/23 01:58:43;;;;;;;14.88;5.38;;;0.80;81.90;;;;;;4983276;28;88124;-71
2023/01/23 02:01:08;;;;;;;14.20;6.10;;;0.80;82.30;;;;;;4978570;28;87614;-71
2023/01/23 02:03:36;;;;;;;14.55;5.65;;;0.80;82.50;;;;;;4985630;28;87080;-71
2023/01/23 02:06:02;;;;;;;13.65;5.13;;;0.80;82.30;;;;;;4976824;28;88714;-71
2023/01/23 02:08:53;;;;;;;14.15;6.32;;;0.80;82.30;;;;;;4992480;28;87899;-71
2023/01/23 02:11:19;;;;;;;14.02;6.18;;;0.80;82.40;;;;;;4995383;28;87677;-72
2023/01/23 02:13:45;;;;;;;12.80;5.60;;;0.70;82.40;;;;;;4989780;28;86587;-72
2023/01/23 02:16:19;;;;;;;13.80;6.00;;;0.70;82.70;;;;;;4976437;28;87842;-71
2023/01/23 02:18:48;;;;;;;14.45;6.35;;;0.60;82.80;;;;;;4989036;28;88801;-71
2023/01/23 02:21:18;;;;;;;13.15;6.32;;;0.50;82.80;;;;;;4970543;28;88370;-72
2023/01/23 02:24:10;;;;;;;13.98;6.32;;;0.50;83.60;;;;;;4978260;28;87356;-71
2023/01/23 02:26:42;;;;;;;13.18;5.72;;;0.40;83.10;;;;;;4966772;28;87866;-71
2023/01/23 02:29:08;;;;;;;14.13;6.10;;;0.40;83.40;;;;;;4975187;28;87740;-71
2023/01/23 02:31:36;;;;;;;15.48;6.38;;;0.40;83.50;;;;;;4976019;28;87402;-71
2023/01/23 02:34:03;;;;;;;15.98;6.38;;;0.40;83.70;;;;;;4964835;28;87135;-71
2023/01/23 02:36:32;;;;;;;13.65;5.70;;;0.40;83.70;;;;;;4977046;28;88120;-70
2023/01/23 02:39:14;;;;;;;16.25;6.25;;;0.40;83.80;;;;;;4989402;28;87316;-72
2023/01/23 02:41:43;;;;;;;13.50;6.28;;;0.30;84.20;;;;;;4974970;28;87450;-71
2023/01/23 02:44:30;;;;;;;13.55;6.13;;;0.40;84.00;;;;;;4985832;28;87283;-71
2023/01/23 02:47:00;;;;;;;14.55;6.20;;;0.40;84.00;;;;;;4957818;28;88484;-71
2023/01/23 02:49:26;;;;;;;14.38;5.63;;;0.40;83.90;;;;;;4972284;28;91193;-70
2023/01/23 02:51:53;;;;;;;15.70;5.93;;;0.50;83.60;;;;;;4977392;28;87683;-70
2023/01/23 02:54:18;;;;;;;15.43;5.95;;;0.40;83.70;;;;;;4980701;28;87390;-71
2023/01/23 02:56:44;;;;;;;17.98;7.40;;;0.40;83.90;;;;;;4963425;28;87591;-70
2023/01/23 03:01:54;;;;;;;14.13;5.65;;;0.60;83.60;;;;;;5000513;28;87240;-71
2023/01/23 03:04:20;;;;;;;14.13;6.03;;;0.60;83.20;;;;;;4987072;28;86591;-71
2023/01/23 03:06:46;;;;;;;14.25;5.97;;;0.60;83.50;;;;;;4979119;28;87501;-71
2023/01/23 03:09:14;;;;;;;14.48;6.43;;;0.60;83.00;;;;;;4969193;28;87352;-70
2023/01/23 03:11:42;;;;;;;14.13;6.22;;;0.70;83.10;;;;;;4982650;28;89864;-71
2023/01/23 03:14:14;;;;;;;13.85;6.43;;;0.80;82.90;;;;;;4999719;28;87327;-71
2023/01/23 03:16:41;;;;;;;13.70;6.00;;;0.80;82.40;;;;;;4973945;28;89147;-72
2023/01/23 03:19:08;;;;;;;14.50;6.40;;;0.80;82.40;;;;;;4982684;28;87565;-72
2023/01/23 03:21:39;;;;;;;13.43;6.10;;;0.80;82.70;;;;;;4993107;28;87615;-72
2023/01/23 03:24:06;;;;;;;14.63;6.63;;;0.90;82.40;;;;;;4972535;28;87451;-71
2023/01/23 03:26:32;;;;;;;13.52;6.43;;;0.90;82.10;;;;;;4980905;28;88309;-71
2023/01/23 03:31:43;;;;;;;15.32;6.70;;;0.90;81.90;;;;;;4980344;28;87271;-72
2023/01/23 03:34:08;;;;;;;13.38;5.90;;;0.90;81.40;;;;;;4999331;28;87209;-71
2023/01/23 03:36:36;;;;;;;13.75;5.55;;;0.90;81.10;;;;;;4989244;28;88753;-71
2023/01/23 03:41:49;;;;;;;14.15;5.78;;;0.90;81.60;;;;;;4974068;28;87402;-70
2023/01/23 03:44:17;;;;;;;13.73;5.63;;;0.90;81.30;;;;;;4993980;28;87546;-71
2023/01/23 03:46:44;;;;;;;15.20;5.60;;;0.90;81.50;;;;;;4999537;28;88202;-72
2023/01/23 03:49:09;;;;;;;14.20;6.10;;;1.00;81.30;;;;;;4977122;28;87971;-70
2023/01/23 03:51:35;;;;;;;15.65;5.97;;;0.90;81.40;;;;;;4980528;28;87113;-72
2023/01/23 03:54:01;;;;;;;14.23;6.15;;;0.90;81.00;;;;;;4968442;28;86697;-70
2023/01/23 03:56:26;;;;;;;11.88;5.43;;;0.90;80.50;;;;;;4979820;28;88138;-72
2023/01/23 03:58:52;;;;;;;13.40;5.40;;;0.80;80.60;;;;;;4968301;28;87673;-72
2023/01/23 04:01:18;;;;;;;10.27;4.32;;;0.80;79.90;;;;;;4983650;28;88521;-72
2023/01/23 04:03:43;;;;;;;12.80;5.22;;;0.70;78.50;;;;;;4984911;28;87315;-72
2023/01/23 04:06:09;;;;;;;11.30;5.13;;;0.70;78.70;;;;;;4978159;28;88183;-72
2023/01/23 04:08:35;;;;;;;12.15;5.30;;;0.70;78.20;;;;;;4979784;28;87720;-70
2023/01/23 04:11:05;;;;;;;12.18;5.25;;;0.60;78.60;;;;;;4980252;28;87392;-72
2023/01/23 04:13:31;;;;;;;10.88;5.15;;;0.60;78.30;;;;;;4980301;28;87550;-73
2023/01/23 04:15:57;;;;;;;13.77;5.53;;;0.60;78.70;;;;;;4979247;28;87515;-71
2023/01/23 04:18:23;;;;;;;12.32;5.18;;;0.60;78.20;;;;;;4975753;28;88162;-69
2023/01/23 04:20:49;;;;;;;13.23;5.38;;;0.50;78.20;;;;;;4971656;28;88823;-69
2023/01/23 04:23:15;;;;;;;11.27;5.18;;;0.40;77.90;;;;;;4987010;28;87577;-69
2023/01/23 04:25:40;;;;;;;11.57;4.70;;;0.30;78.60;;;;;;4972265;28;89048;-69
2023/01/23 04:28:06;;;;;;;11.07;5.07;;;0.40;78.80;;;;;;4985186;28;88817;-73
2023/01/23 04:30:31;;;;;;;12.25;5.30;;;0.40;79.00;;;;;;4988660;28;87574;-71
2023/01/23 04:32:57;;;;;;;11.18;5.28;;;0.40;78.90;;;;;;4969060;28;87602;-71
2023/01/23 04:35:23;;;;;;;12.88;5.18;;;0.40;79.30;;;;;;4971112;28;89282;-71
2023/01/23 04:37:48;;;;;;;11.27;5.10;;;0.40;79.30;;;;;;4980343;28;87700;-71
2023/01/23 04:40:14;;;;;;;11.15;4.80;;;0.40;79.30;;;;;;4972934;28;87244;-69
2023/01/23 04:42:40;;;;;;;12.75;4.82;;;0.50;78.60;;;;;;4978077;28;86835;-70
2023/01/23 04:45:07;;;;;;;10.77;4.38;;;0.50;78.70;;;;;;4986466;28;88485;-70
2023/01/23 04:47:33;;;;;;;13.38;5.30;;;0.60;78.80;;;;;;4975590;28;87857;-71
2023/01/23 04:49:59;;;;;;;12.65;5.20;;;0.60;78.30;;;;;;4981463;28;89206;-69
2023/01/23 04:52:24;;;;;;;11.35;4.93;;;0.60;78.30;;;;;;4980711;28;87639;-71
2023/01/23 04:54:50;;;;;;;11.57;4.93;;;0.60;78.80;;;;;;4974865;28;88093;-71
2023/01/23 04:57:16;;;;;;;12.43;5.53;;;0.70;78.30;;;;;;4996189;28;87546;-70
2023/01/23 04:59:41;;;;;;;11.60;5.18;;;0.80;78.50;;;;;;4983501;28;87641;-70
2023/01/23 05:02:08;;;;;;;12.05;5.50;;;0.90;78.70;;;;;;4977891;28;88012;-71
2023/01/23 05:04:34;;;;;;;14.18;5.38;;;0.90;78.20;;;;;;4970068;28;87620;-70
2023/01/23 05:06:59;;;;;;;11.68;5.45;;;0.90;78.40;;;;;;4971391;28;88048;-70
2023/01/23 05:09:25;;;;;;;12.15;5.43;;;0.90;78.60;;;;;;4998146;28;88859;-70
2023/01/23 05:11:51;;;;;;;12.68;5.75;;;0.80;78.60;;;;;;4984442;28;87499;-69
2023/01/23 05:14:17;;;;;;;13.70;5.78;;;0.70;79.30;;;;;;4998297;28;88165;-69
2023/01/23 05:16:43;;;;;;;14.00;5.45;;;0.60;79.70;;;;;;4977670;28;88870;-69
2023/01/23 05:19:08;;;;;;;13.60;5.65;;;0.60;79.30;;;;;;4976794;28;87830;-70
2023/01/23 05:21:34;;;;;;;13.52;5.80;;;0.60;79.10;;;;;;4987537;28;87490;-70
2023/01/23 05:24:00;;;;;;;12.90;5.40;;;0.70;79.20;;;;;;4986154;28;87611;-71
2023/01/23 05:26:25;;;;;;;13.00;5.53;;;0.70;78.90;;;;;;4966122;28;87831;-70
2023/01/23 05:28:51;;;;;;;12.07;5.28;;;0.70;78.90;;;;;;4976412;28;88621;-70
2023/01/23 05:31:17;;;;;;;12.07;5.25;;;0.70;79.30;;;;;;4975570;28;86990;-72
2023/01/23 05:33:43;;;;;;;14.48;5.45;;;0.70;79.40;;;;;;4988077;28;88465;-70
2023/01/23 05:36:08;;;;;;;15.57;6.00;;;0.70;79.40;;;;;;4978169;28;87133;-71
2023/01/23 05:38:34;;;;;;;14.27;5.90;;;0.70;79.20;;;;;;4991513;28;88546;-69
2023/01/23 05:41:00;;;;;;;13.88;5.30;;;0.70;79.30;;;;;;4966481;28;87995;-71
2023/01/23 05:43:25;;;;;;;14.05;5.35;;;0.60;79.50;;;;;;4974924;28;88182;-72
2023/01/23 05:45:51;;;;;;;11.60;5.10;;;0.50;79.20;;;;;;4986213;28;87776;-71
2023/01/23 05:48:16;;;;;;;14.25;6.10;;;0.50;79.00;;;;;;4991608;28;87448;-71
2023/01/23 05:50:42;;;;;;;12.32;5.30;;;0.50;79.00;;;;;;4982475;28;87378;-70
2023/01/23 05:53:08;;;;;;;13.18;5.68;;;0.40;79.30;;;;;;4988404;28;88589;-70
2023/01/23 05:55:36;;;;;;;14.45;6.30;;;0.40;79.60;;;;;;4971886;28;87956;-71
2023/01/23 05:58:01;;;;;;;12.60;5.72;;;0.30;79.50;;;;;;4971691;28;87588;-70
2023/01/23 06:00:27;;;;;;;13.82;6.07;;;0.20;79.70;;;;;;4980664;28;88717;-71
2023/01/23 06:02:53;;;;;;;12.57;5.30;;;0.20;80.00;;;;;;4977628;28;89135;-73
2023/01/23 06:05:18;;;;;;;13.90;5.18;;;0.10;79.90;;;;;;4975404;28;89018;-71
2023/01/23 06:07:44;;;;;;;13.43;5.03;;;0.00;80.20;;;;;;4975236;28;87254;-71
2023/01/23 06:10:10;;;;;;;13.15;5.60;;;-0.20;79.90;;;;;;4969058;28;87997;-70
2023/01/23 06:12:36;;;;;;;12.02;4.75;;;-0.30;80.00;;;;;;4984544;28;87593;-72
2023/01/23 06:15:01;;;;;;;11.30;4.75;;;-0.30;80.10;;;;;;4975301;28;88256;-71
2023/01/23 06:17:27;;;;;;;10.70;4.25;;;-0.30;80.00;;;;;;4978602;28;87865;-71
2023/01/23 06:19:53;;;;;;;13.27;5.20;;;-0.30;79.90;;;;;;4992115;28;86990;-71
2023/01/23 06:22:18;;;;;;;11.75;4.88;;;-0.40;79.90;;;;;;4987549;28;87391;-71
2023/01/23 06:24:44;;;;;;;12.57;5.13;;;-0.40;81.60;;;;;;4992683;28;88996;-72
2023/01/23 06:27:10;;;;;;;13.13;4.60;;;-0.30;80.60;;;;;;4976243;28;88402;-71
2023/01/23 06:29:36;;;;;;;11.07;4.20;;;-0.40;80.10;;;;;;4969476;28;88406;-74
2023/01/23 06:32:03;;;;;;;12.98;5.15;;;-0.40;79.90;;;;;;4973307;28;87681;-71
2023/01/23 06:34:29;;;;;;;11.65;5.00;;;-0.40;79.70;;;;;;4991012;28;89399;-71
2023/01/23 06:36:55;;;;;;;13.00;4.93;;;-0.40;79.80;;;;;;4983703;28;87493;-73
2023/01/23 06:39:21;;;;;;;14.70;5.25;;;-0.40;79.90;;;;;;4986263;28;87066;-71
2023/01/23 06:41:46;;;;;;;13.07;4.70;;;-0.50;80.00;;;;;;4996703;28;87679;-71
2023/01/23 06:44:12;;;;;;;10.13;3.92;;;-0.50;80.00;;;;;;4993784;28;87878;-71
2023/01/23 06:46:38;;;;;;;14.95;5.00;;;-0.50;79.90;;;;;;4967300;28;87584;-71
2023/01/23 06:49:04;;;;;;;13.63;5.10;;;-0.50;80.20;;;;;;4974685;28;87251;-70
2023/01/23 06:51:31;;;;;;;12.70;5.15;;;-0.60;80.40;;;;;;4971999;28;89378;-71
2023/01/23 06:53:56;;;;;;;13.75;5.10;;;-0.60;80.60;;;;;;4979921;28;89469;-72
2023/01/23 06:56:22;;;;;;;13.90;5.13;;;-0.60;80.70;;;;;;4969180;28;87551;-72
2023/01/23 06:58:48;;;;;;;13.15;5.03;;;-0.60;80.70;;;;;;4979991;28;89085;-72
2023/01/23 07:01:16;;;;;;;15.50;5.63;;;-0.60;80.80;;;;;;4963824;28;88001;-71
2023/01/23 07:03:44;;;;;;;13.40;4.40;;;-0.60;81.20;;;;;;4980830;28;88193;-73
2023/01/23 07:06:14;;;;;;;13.57;5.70;;;-0.60;81.00;;;;;;4974978;28;87353;-71
2023/01/23 07:08:41;;;;;;;23.88;8.80;;;-0.60;80.70;;;;;;4974712;28;86896;-71
2023/01/23 07:11:08;;;;;;;18.02;7.70;;;-0.60;81.10;;;;;;4972273;28;88179;-71
2023/01/23 07:13:35;;;;;;;20.60;7.30;;;-0.60;81.50;;;;;;4973447;28;87520;-71
2023/01/23 07:16:01;;;;;;;17.67;5.93;;;-0.60;81.60;;;;;;4970969;28;88431;-71
2023/01/23 07:18:28;;;;;;;22.20;7.03;;;-0.60;81.20;;;;;;4974764;28;87386;-71
2023/01/23 07:20:54;;;;;;;17.50;6.05;;;-0.60;81.30;;;;;;4978879;28;87554;-71
2023/01/23 07:23:21;;;;;;;15.85;6.43;;;-0.60;81.00;;;;;;4967799;28;87864;-71
2023/01/23 07:25:46;;;;;;;16.30;6.40;;;-0.60;81.90;;;;;;4981861;28;87300;-71
2023/01/23 07:28:13;;;;;;;15.95;5.13;;;-0.60;80.70;;;;;;4972648;28;87277;-70
2023/01/23 07:30:38;;;;;;;16.77;4.95;;;-0.60;80.20;;;;;;4974444;28;87885;-72
2023/01/23 07:33:05;;;;;;;14.57;4.63;;;-0.60;79.10;;;;;;4965450;28;88023;-72
2023/01/23 07:35:31;;;;;;;15.23;5.00;;;-0.60;78.70;;;;;;4972928;28;87614;-72
2023/01/23 07:37:56;;;;;;;9.60;4.30;;;-0.60;78.70;;;;;;4980913;28;87523;-71
2023/01/23 07:40:22;;;;;;;15.80;4.10;;;-0.50;78.50;;;;;;4978732;28;89183;-70
2023/01/23 07:42:48;;;;;;;10.23;3.72;;;-0.50;78.10;;;;;;4973466;28;88712;-70
2023/01/23 07:45:14;;;;;;;11.32;4.60;;;-0.50;78.00;;;;;;4990868;28;89562;-70
2023/01/23 07:47:40;;;;;;;8.93;3.38;;;-0.30;77.60;;;;;;4977658;28;87241;-70
2023/01/23 07:50:07;;;;;;;11.48;4.20;;;-0.10;76.30;;;;;;4972691;28;88041;-70
2023/01/23 07:52:33;;;;;;;12.05;4.40;;;0.00;75.70;;;;;;4973241;28;87561;-70
2023/01/23 07:54:58;;;;;;;12.52;4.20;;;0.20;75.30;;;;;;4977805;28;87471;-70
2023/01/23 07:57:24;;;;;;;13.55;3.88;;;0.40;74.60;;;;;;4975864;28;89170;-69
2023/01/23 07:59:50;;;;;;;11.60;4.13;;;0.60;74.10;;;;;;4986724;28;88182;-71
2023/01/23 08:02:15;;;;;;;11.10;4.18;;;0.80;73.40;;;;;;4978969;28;88287;-69
2023/01/23 08:04:41;;;;;;;10.35;4.30;;;0.90;72.80;;;;;;4977056;28;89975;-70
2023/01/23 08:07:07;;;;;;;9.30;4.18;;;0.90;71.80;;;;;;4975021;28;88679;-69
2023/01/23 08:09:32;;;;;;;9.80;3.95;;;0.90;72.50;;;;;;4987397;28;88649;-69
2023/01/23 08:11:58;;;;;;;10.32;4.32;;;1.10;72.40;;;;;;4978971;28;87336;-69
2023/01/23 08:14:24;;;;;;;15.75;4.90;;;1.20;72.10;;;;;;4974552;28;88137;-70
2023/01/23 08:16:50;;;;;;;14.00;5.22;;;1.20;71.90;;;;;;4972761;28;87519;-72
2023/01/23 08:19:17;;;;;;;13.88;4.93;;;1.20;71.40;;;;;;4971287;28;88557;-71
2023/01/23 08:21:43;;;;;;;16.95;5.50;;;1.00;72.20;;;;;;4966901;28;88371;-73
2023/01/23 08:24:11;;;;;;;19.55;5.25;;;0.90;72.30;;;;;;4975326;28;89612;-72
2023/01/23 08:26:36;;;;;;;19.45;6.03;;;0.90;73.20;;;;;;4970195;28;87521;-72
2023/01/23 08:29:02;;;;;;;14.30;4.38;;;0.90;73.10;;;;;;4983446;28;88478;-72
2023/01/23 08:31:28;;;;;;;13.40;4.80;;;0.90;71.80;;;;;;4982328;28;88016;-71
2023/01/23 08:33:54;;;;;;;11.00;4.25;;;0.90;72.20;;;;;;4969587;28;87471;-72
2023/01/23 08:36:20;;;;;;;10.05;4.50;;;0.90;71.40;;;;;;4968008;28;87869;-71
2023/01/23 08:38:46;;;;;;;12.63;4.18;;;0.90;70.80;;;;;;4983216;28;88241;-69
2023/01/23 08:41:11;;;;;;;13.70;4.80;;;0.80;70.90;;;;;;4981384;28;87442;-69
2023/01/23 08:43:40;;;;;;;11.07;4.50;;;0.80;71.50;;;;;;4983507;28;87145;-70
2023/01/23 08:46:06;;;;;;;10.60;3.80;;;0.90;71.60;;;;;;4983830;28;86940;-70
2023/01/23 08:48:34;;;;;;;15.00;4.80;;;0.90;71.40;;;;;;4978633;28;87679;-69
2023/01/23 08:51:05;;;;;;;10.73;4.45;;;1.00;71.30;;;;;;4981337;28;87845;-70
2023/01/23 08:53:32;;;;;;;10.32;4.35;;;1.20;70.50;;;;;;4977959;28;88453;-71
2023/01/23 08:56:03;;;;;;;12.07;4.03;;;1.30;70.40;;;;;;4973276;28;88343;-72
2023/01/23 08:58:29;;;;;;;9.15;4.30;;;1.40;70.30;;;;;;4973072;28;88160;-70
2023/01/23 09:00:55;;;;;;;9.57;3.92;;;2.40;68.90;;;;;;4972837;28;87347;-69
2023/01/23 09:03:21;;;;;;;9.82;4.38;;;3.60;64.90;;;;;;4977895;28;87471;-71
2023/01/23 09:05:47;;;;;;;9.50;3.75;;;4.70;62.60;;;;;;4967553;28;87394;-72
2023/01/23 09:08:13;;;;;;;8.60;4.30;;;5.30;59.30;;;;;;4975230;28;87803;-69
2023/01/23 09:10:39;;;;;;;10.57;4.95;;;5.50;58.20;;;;;;4978214;28;86910;-71
2023/01/23 09:13:04;;;;;;;15.13;4.95;;;5.00;59.50;;;;;;4978182;28;87373;-72
2023/01/23 09:15:30;;;;;;;17.45;4.50;;;4.60;61.40;;;;;;4977088;28;87664;-70
2023/01/23 09:17:56;;;;;;;10.45;4.60;;;4.30;61.80;;;;;;4972952;28;89093;-71
2023/01/23 09:20:25;;;;;;;15.10;5.80;;;4.10;61.90;;;;;;4979817;28;88879;-70
2023/01/23 09:22:51;;;;;;;11.55;4.93;;;3.90;62.90;;;;;;4964562;28;88486;-73
2023/01/23 09:25:17;;;;;;;8.30;3.80;;;3.60;63.00;;;;;;4970467;28;87305;-72
2023/01/23 09:27:43;;;;;;;8.63;3.92;;;3.30;63.60;;;;;;4967702;28;90614;-71
2023/01/23 09:30:09;;;;;;;9.32;4.22;;;3.20;64.50;;;;;;4978436;28;87664;-72
2023/01/23 09:32:35;;;;;;;8.57;3.90;;;3.20;65.10;;;;;;4972785;28;87494;-70
2023/01/23 09:35:00;;;;;;;8.52;3.88;;;3.20;65.00;;;;;;4965270;28;86731;-71
2023/01/23 09:37:58;;;;;;;12.02;4.72;;;3.00;64.20;;;;;;4965536;28;87707;-72
2023/01/23 09:40:17;;;;;;;13.57;4.20;;;2.90;65.00;;;;;;4976855;28;88744;-71
2023/01/23 09:42:43;;;;;;;10.85;4.10;;;3.00;65.80;;;;;;4986446;28;87888;-71
2023/01/23 09:45:15;;;;;;;10.57;4.38;;;3.00;65.40;;;;;;4997888;28;87517;-72
2023/01/23 09:47:59;;;;;;;8.70;3.53;;;2.90;65.90;;;;;;4990133;28;87357;-73
2023/01/23 09:50:38;;;;;;;9.23;4.20;;;2.90;65.80;;;;;;4967947;28;88198;-71
2023/01/23 09:53:11;;;;;;;8.57;3.63;;;2.80;65.90;;;;;;4985730;28;89113;-73
2023/01/23 09:55:48;;;;;;;9.10;3.58;;;2.80;65.80;;;;;;4974047;28;87889;-70
2023/01/23 09:58:51;;;;;;;8.48;3.58;;;2.80;66.00;;;;;;4977966;28;88776;-73
2023/01/23 10:01:17;;;;;;;7.95;3.38;;;3.00;66.00;;;;;;4970732;28;87372;-71
2023/01/23 10:03:43;;;;;;;11.35;3.70;;;3.10;65.00;;;;;;4978961;28;87550;-73
2023/01/23 10:06:29;;;;;;;8.57;3.97;;;3.10;64.90;;;;;;4977800;28;87156;-72
2023/01/23 10:09:14;;;;;;;9.07;3.58;;;3.20;65.00;;;;;;4982610;28;88507;-72
2023/01/23 10:11:57;;;;;;;11.35;4.45;;;3.30;65.40;;;;;;4993774;28;88529;-72
2023/01/23 10:14:58;;;;;;;11.25;4.38;;;3.40;64.90;;;;;;4985433;28;87307;-72
2023/01/23 10:17:31;;;;;;;10.57;4.70;;;3.20;64.60;;;;;;4977352;28;87710;-71
2023/01/23 10:20:16;;;;;;;9.25;4.50;;;3.20;66.00;;;;;;4980795;28;88949;-71
2023/01/23 10:22:54;;;;;;;9.48;4.35;;;3.20;65.30;;;;;;4989786;28;87944;-70
2023/01/23 10:25:31;;;;;;;10.30;4.45;;;3.30;66.60;;;;;;4977379;28;87482;-70
2023/01/23 10:28:11;;;;;;;13.07;4.30;;;3.50;64.90;;;;;;4969674;28;86703;-72
2023/01/23 10:30:40;;;;;;;13.00;3.90;;;3.70;65.20;;;;;;4978755;28;87575;-70
2023/01/23 10:33:14;;;;;;;11.73;4.30;;;3.80;64.60;;;;;;4977224;28;88946;-70
2023/01/23 10:36:06;;;;;;;9.48;4.22;;;3.70;64.10;;;;;;4982401;28;88248;-72
2023/01/23 10:39:13;;;;;;;9.20;4.45;;;3.50;63.50;;;;;;4997897;28;87396;-70
2023/01/23 10:41:39;;;;;;;8.02;3.30;;;3.30;63.90;;;;;;4990165;28;87734;-72
2023/01/23 10:44:16;;;;;;;9.38;3.88;;;3.20;64.30;;;;;;4961525;28;88069;-71
2023/01/23 10:46:54;;;;;;;8.68;3.78;;;3.10;64.90;;;;;;4963695;28;87595;-72
2023/01/23 10:49:26;;;;;;;7.25;3.58;;;3.10;65.20;;;;;;4975864;28;88065;-72
2023/01/23 10:51:52;;;;;;;8.85;3.75;;;3.10;65.80;;;;;;4975294;28;87712;-70
2023/01/23 10:54:26;;;;;;;8.60;3.55;;;3.30;66.10;;;;;;4964450;28;88481;-72
2023/01/23 10:56:59;;;;;;;7.72;3.65;;;3.40;65.90;;;;;;4962381;28;89476;-69
2023/01/23 10:59:31;;;;;;;9.00;3.85;;;3.70;66.30;;;;;;4985155;28;87604;-72
2023/01/23 11:01:58;;;;;;;12.00;4.00;;;3.90;64.90;;;;;;4980951;28;88927;-70
2023/01/23 11:04:27;;;;;;;10.55;4.32;;;4.00;63.50;;;;;;4971263;28;88229;-71
2023/01/23 11:07:12;;;;;;;11.07;4.43;;;4.10;63.90;;;;;;4981108;28;88851;-71
2023/01/23 11:10:07;;;;;;;13.00;4.45;;;4.30;63.60;;;;;;4970475;28;88624;-71
2023/01/23 11:12:44;;;;;;;7.93;3.55;;;4.50;63.60;;;;;;4970817;28;89015;-71
2023/01/23 11:15:30;;;;;;;9.07;4.00;;;4.60;61.10;;;;;;4981389;28;87548;-72
2023/01/23 11:17:58;;;;;;;8.68;4.03;;;4.40;61.90;;;;;;4974970;28;87611;-70
2023/01/23 11:20:28;;;;;;;8.95;4.30;;;4.50;62.30;;;;;;4981903;28;86406;-69
2023/01/23 11:23:12;;;;;;;10.30;4.63;;;4.80;62.50;;;;;;4975214;28;88428;-72
2023/01/23 11:25:37;;;;;;;;;;;5.00;61.90;;;;;;4970491;28;88039;-72
2023/01/23 11:28:22;;;;;;;10.80;4.70;;;5.00;62.70;;;;;;4969069;28;89859;-72
2023/01/23 11:30:56;;;;;;;10.13;5.28;;;5.10;60.70;;;;;;4961671;28;87557;-70
2023/01/23 11:33:25;;;;;;;10.82;5.05;;;5.00;60.70;;;;;;4966378;28;89046;-72
2023/01/23 11:35:56;;;;;;;9.80;4.90;;;5.10;60.50;;;;;;4967837;28;87764;-72
2023/01/23 11:38:25;;;;;;;9.88;4.80;;;4.90;60.20;;;;;;4963989;28;89077;-71
2023/01/23 11:40:52;;;;;;;9.80;4.57;;;4.90;60.70;;;;;;4975213;28;88115;-72
2023/01/23 11:43:18;;;;;;;9.00;4.57;;;5.00;60.90;;;;;;4966762;28;88275;-73
2023/01/23 11:46:11;;;;;;;14.55;5.20;;;5.20;60.40;;;;;;4970587;28;87577;-72
2023/01/23 11:49:04;;;;;;;10.18;5.00;;;5.50;60.20;;;;;;4963528;28;88837;-72
2023/01/23 11:51:36;;;;;;;9.32;4.45;;;6.00;60.40;;;;;;4959375;28;87505;-71
2023/01/23 11:54:37;;;;;;;11.93;5.57;;;6.10;58.80;;;;;;4963337;28;90569;-71
2023/01/23 11:57:25;;;;;;;12.02;5.95;;;6.20;58.00;;;;;;4963986;28;89828;-71
2023/01/23 12:00:20;;;;;;;10.43;5.32;;;6.30;57.40;;;;;;4974895;28;87661;-71
2023/01/23 12:03:13;;;;;;;9.80;5.20;;;6.20;58.20;;;;;;4957521;28;87890;-71
2023/01/23 12:06:16;;;;;;;10.25;4.75;;;5.80;58.70;;;;;;4966333;28;87866;-74
2023/01/23 12:08:58;;;;;;;10.73;5.22;;;5.50;60.50;;;;;;4959402;28;87912;-72
2023/01/23 12:11:27;;;;;;;11.95;5.40;;;5.30;60.50;;;;;;4963184;28;89326;-73
2023/01/23 12:14:24;;;;;;;14.93;7.32;;;5.20;61.00;;;;;;4961867;28;88311;-70
2023/01/23 12:17:07;;;;;;;12.60;5.72;;;5.30;61.60;;;;;;4966760;28;88479;-71
2023/01/23 12:20:02;;;;;;;10.95;4.97;;;5.50;61.00;;;;;;4977115;28;89478;-71
2023/01/23 12:23:03;;;;;;;12.15;6.28;;;5.60;62.30;;;;;;4971370;28;88469;-72
2023/01/23 12:25:39;;;;;;;12.13;5.43;;;5.70;67.00;;;;;;4990953;28;87323;-71
2023/01/23 12:28:50;;;;;;;12.05;5.22;;;5.70;61.90;;;;;;4973689;28;88069;-71
2023/01/23 12:31:52;;;;;;;11.07;5.15;;;5.80;61.20;;;;;;4968095;28;89523;-71
2023/01/23 12:34:20;;;;;;;10.77;5.28;;;5.90;61.10;;;;;;4987278;28;87519;-71
2023/01/23 12:37:06;;;;;;;12.90;5.57;;;6.00;60.90;;;;;;4991183;28;87689;-71
2023/01/23 12:40:04;;;;;;;10.63;4.82;;;5.90;60.40;;;;;;4978258;28;87636;-72
2023/01/23 12:42:40;;;;;;;10.23;4.72;;;5.70;60.10;;;;;;4979649;28;88443;-71
2023/01/23 12:45:13;;;;;;;13.82;5.70;;;5.50;60.80;;;;;;4970532;28;87797;-71
2023/01/23 12:47:54;;;;;;;12.50;5.95;;;5.40;61.30;;;;;;4973155;28;87293;-70
2023/01/23 12:50:23;;;;;;;10.88;5.43;;;5.30;62.70;;;;;;4989827;28;89180;-72
2023/01/23 12:52:56;;;;;;;17.20;5.65;;;5.40;60.90;;;;;;4983844;28;88282;-72
2023/01/23 12:55:44;;;;;;;10.75;5.60;;;5.20;61.20;;;;;;4969002;28;87347;-71
2023/01/23 12:58:16;;;;;;;11.00;5.20;;;5.00;61.40;;;;;;4975097;28;88812;-71
2023/01/23 13:01:03;;;;;;;13.23;5.30;;;4.90;61.70;;;;;;4979997;28;87660;-72
2023/01/23 13:03:34;;;;;;;12.02;5.47;;;4.70;62.50;;;;;;4968857;28;88321;-72
2023/01/23 13:06:00;;;;;;;11.82;5.43;;;4.50;63.50;;;;;;4977838;28;87645;-70
2023/01/23 13:08:28;;;;;;;18.33;5.75;;;4.40;63.80;;;;;;4981135;28;86733;-70
2023/01/23 13:13:49;;;;;;;13.80;5.90;;;4.80;63.10;;;;;;4977104;28;87438;-72